Time;durP1;ratioP1;P1;durP2;ratioP2;P2;SDS_P1;SDS_P2;PMS_P1;PMS_P2;Temp;Humidity;BMP_temperature;BMP_pressure;BME280_temperature;BME280_humidity;BME280_pressure;Samples;Min_cycle;Max_cycle;Signal;HPM_P1;HPM_P2
2022/05/10 00:00:15;;;;;;;;;12.00;10.50;;;;;22.31;39.63;101577.88;5056249;28;45363;-57
2022/05/10 00:02:41;;;;;;;;;15.00;14.25;;;;;22.33;39.99;101577.81;5056543;28;45365;-57
2022/05/10 00:05:08;;;;;;;;;13.50;13.00;;;;;22.33;39.74;101580.44;5056360;28;45501;-57
2022/05/10 00:07:36;;;;;;;;;14.75;13.00;;;;;22.33;39.77;101578.66;5056405;28;46101;-57
2022/05/10 00:10:05;;;;;;;;;14.00;14.00;;;;;22.34;39.76;101579.50;5056252;28;45884;-57
2022/05/10 00:12:31;;;;;;;;;13.00;12.25;;;;;22.33;39.79;101577.81;5056456;28;45449;-57
2022/05/10 00:14:56;;;;;;;;;15.25;13.50;;;;;22.30;39.66;101570.06;5056278;28;45272;-57
2022/05/10 00:17:30;;;;;;;;;15.00;15.00;;;;;22.33;39.97;101569.88;5054694;28;47594;-57
2022/05/10 00:19:56;;;;;;;;;16.25;14.25;;;;;22.33;39.93;101569.88;5059747;28;45397;-57
2022/05/10 00:22:21;;;;;;;;;16.25;14.25;;;;;22.33;39.97;101565.47;5059702;28;45441;-58
2022/05/10 00:24:47;;;;;;;;;12.75;12.75;;;;;22.32;40.01;101568.19;5059802;28;45626;-57
2022/05/10 00:27:12;;;;;;;;;15.50;13.50;;;;;22.33;39.73;101564.59;5074403;28;45450;-57
2022/05/10 00:29:38;;;;;;;;;15.50;13.00;;;;;22.32;39.77;101566.41;5059355;28;45271;-57
2022/05/10 00:32:03;;;;;;;;;15.00;13.00;;;;;22.32;40.11;101571.69;5059874;28;45172;-57
2022/05/10 00:34:30;;;;;;;;;16.00;13.00;;;;;22.32;39.99;101562.91;5059662;28;45551;-57
2022/05/10 00:36:56;;;;;;;;;15.00;13.00;;;;;22.32;39.87;101561.13;5059171;28;46252;-58
2022/05/10 00:39:21;;;;;;;;;14.75;13.00;;;;;22.30;39.83;101556.84;5058132;28;45301;-57
2022/05/10 00:41:58;;;;;;;;;14.75;13.50;;;;;22.32;39.84;101562.91;5058241;28;45376;-57
2022/05/10 00:44:49;;;;;;;;;14.75;12.75;;;;;22.33;39.79;101556.66;5059413;28;45302;-57
2022/05/10 00:47:39;;;;;;;;;15.75;13.50;;;;;22.31;40.01;101556.75;5059227;28;45349;-57
2022/05/10 00:50:04;;;;;;;;;16.50;14.25;;;;;22.30;39.91;101549.78;5074939;28;45965;-59
2022/05/10 00:52:51;;;;;;;;;16.00;12.75;;;;;22.31;40.27;101545.34;5059357;28;45317;-58
2022/05/10 00:55:23;;;;;;;;;17.00;15.50;;;;;22.31;40.24;101540.06;5059484;28;45457;-57
2022/05/10 00:58:04;;;;;;;;;14.00;12.75;;;;;22.30;40.02;101541.00;5059177;28;45426;-57
2022/05/10 01:00:31;;;;;;;;;14.25;13.75;;;;;22.30;40.13;101538.38;5058863;28;45708;-57
2022/05/10 01:03:17;;;;;;;;;16.50;15.25;;;;;22.30;40.08;101533.09;5059183;28;45308;-57
2022/05/10 01:06:04;;;;;;;;;12.75;12.00;;;;;22.30;40.18;101523.38;5059406;28;45413;-58
2022/05/10 01:08:40;;;;;;;;;12.50;12.50;;;;;22.29;40.11;101526.09;5058911;28;46627;-57
2022/05/10 01:11:29;;;;;;;;;13.50;13.50;;;;;22.31;40.10;101534.78;5059307;28;45780;-57
2022/05/10 01:14:16;;;;;;;;;13.00;13.00;;;;;22.30;40.20;101530.44;5058899;28;45275;-57
2022/05/10 01:16:42;;;;;;;;;14.25;13.25;;;;;22.27;40.27;101522.69;5059118;28;45279;-57
2022/05/10 01:19:07;;;;;;;;;10.75;10.75;;;;;22.30;40.40;101526.00;5058980;28;46158;-57
2022/05/10 01:21:42;;;;;;;;;16.00;15.25;;;;;22.29;40.11;101513.72;5059025;28;45437;-57
2022/05/10 01:24:10;;;;;;;;;14.75;14.75;;;;;22.30;40.11;101517.25;5059136;28;45252;-57
2022/05/10 01:26:58;;;;;;;;;13.75;13.75;;;;;22.29;40.41;101512.91;5059049;28;45420;-57
2022/05/10 01:29:38;;;;;;;;;15.67;14.33;;;;;22.30;40.18;101511.97;5058333;28;47018;-57
2022/05/10 01:34:58;;;;;;;;;14.25;14.25;;;;;22.29;40.13;101510.25;5058566;28;45474;-57
2022/05/10 01:37:27;;;;;;;;;12.25;12.25;;;;;22.29;40.13;101511.09;5058592;28;45276;-57
2022/05/10 01:40:04;;;;;;;;;14.50;14.50;;;;;22.29;40.41;101507.63;5058299;28;45975;-57
2022/05/10 01:42:32;;;;;;;;;13.75;13.25;;;;;22.29;40.28;101502.34;5058234;28;45697;-57
2022/05/10 01:45:08;;;;;;;;;14.50;13.75;;;;;22.27;40.42;101501.56;5057265;28;45289;-58
2022/05/10 01:47:39;;;;;;;;;15.25;14.25;;;;;22.29;40.16;101499.69;5058649;28;45321;-57
2022/05/10 01:50:30;;;;;;;;;16.50;12.75;;;;;22.28;40.28;101493.53;5058320;28;45375;-57
2022/05/10 01:53:04;;;;;;;;;15.00;13.75;;;;;22.29;40.50;101502.34;5058199;28;45385;-57
2022/05/10 01:55:34;;;;;;;;;15.00;13.50;;;;;22.28;40.41;101493.53;5058365;28;45421;-58
2022/05/10 01:58:05;;;;;;;;;14.00;13.25;;;;;22.27;40.26;101491.00;5058439;28;45236;-57
2022/05/10 02:00:32;;;;;;;;;20.25;14.75;;;;;22.28;40.52;101493.53;5058102;28;45680;-57
2022/05/10 02:03:03;;;;;;;;;16.00;14.75;;;;;22.29;40.57;101486.50;5057865;28;45954;-57
2022/05/10 02:05:39;;;;;;;;;15.75;14.00;;;;;22.28;40.61;101488.25;5058146;28;45498;-56
2022/05/10 02:08:13;;;;;;;;;16.25;14.25;;;;;22.27;40.84;101485.72;5058275;28;45460;-57
2022/05/10 02:10:43;;;;;;;;;20.00;15.75;;;;;22.28;40.71;101492.69;5058182;28;45303;-57
2022/05/10 02:13:16;;;;;;;;;17.25;15.50;;;;;22.26;40.80;101492.78;5058085;28;45193;-57
2022/05/10 02:16:03;;;;;;;;;18.25;16.25;;;;;22.21;40.93;101479.81;5057835;28;45367;-57
2022/05/10 02:19:09;;;;;;;;;15.00;15.00;;;;;22.20;41.13;101483.41;5056805;28;45381;-57
2022/05/10 02:21:44;;;;;;;;;19.00;16.75;;;;;22.19;41.18;101481.69;5037237;28;45468;-57
2022/05/10 02:24:22;;;;;;;;;13.25;13.25;;;;;22.17;41.00;101478.28;5058113;28;45791;-57
2022/05/10 02:26:56;;;;;;;;;17.25;15.00;;;;;22.15;41.31;101480.13;5057773;28;45219;-57
2022/05/10 02:29:38;;;;;;;;;16.00;14.75;;;;;22.15;41.31;101476.66;5057988;28;45327;-57
2022/05/10 02:34:53;;;;;;;;;16.00;15.50;;;;;22.11;41.21;101481.22;5057477;28;45353;-57
2022/05/10 02:37:19;;;;;;;;;21.00;19.75;;;;;22.09;41.28;101476.03;5057667;28;45319;-57
2022/05/10 02:39:44;;;;;;;;;21.25;17.50;;;;;22.07;41.48;101474.41;5057782;28;45403;-57
2022/05/10 02:42:12;;;;;;;;;17.75;16.25;;;;;22.01;41.60;101464.16;5056976;28;46021;-57
2022/05/10 02:44:38;;;;;;;;;16.25;15.50;;;;;22.05;41.50;101473.63;5057773;28;45327;-57
2022/05/10 02:47:06;;;;;;;;;16.00;15.25;;;;;22.04;41.37;101469.28;5057532;28;45276;-57
2022/05/10 02:49:33;;;;;;;;;19.50;15.25;;;;;22.02;41.54;101469.38;5057644;28;45174;-57
2022/05/10 02:51:58;;;;;;;;;16.50;15.75;;;;;22.02;41.54;101463.22;5057253;28;46588;-57
2022/05/10 02:54:24;;;;;;;;;18.00;16.25;;;;;22.01;41.59;101464.16;5072804;28;45739;-57
2022/05/10 02:56:51;;;;;;;;;19.25;16.25;;;;;22.01;41.66;101458.88;5057221;28;45372;-57
2022/05/10 02:59:22;;;;;;;;;17.75;15.75;;;;;22.00;41.54;101462.44;5057437;28;45472;-57
2022/05/10 03:01:58;;;;;;;;;18.00;17.25;;;;;21.99;41.61;101458.13;5056930;28;46157;-57
2022/05/10 03:04:23;;;;;;;;;18.00;18.00;;;;;21.98;41.89;101456.41;5055732;28;46496;-57
2022/05/10 03:06:49;;;;;;;;;21.00;17.50;;;;;21.97;41.94;101458.19;5056983;28;45326;-57
2022/05/10 03:09:15;;;;;;;;;17.75;17.50;;;;;21.97;41.65;101452.06;5057230;28;45378;-57
2022/05/10 03:11:42;;;;;;;;;23.00;19.25;;;;;21.95;42.02;101451.28;5056875;28;46505;-57
2022/05/10 03:14:09;;;;;;;;;19.00;17.75;;;;;21.93;41.97;101452.22;5056778;28;45359;-57
2022/05/10 03:16:35;;;;;;;;;18.00;18.00;;;;;21.93;42.01;101448.72;5056938;28;45350;-57
2022/05/10 03:19:02;;;;;;;;;17.25;16.75;;;;;21.91;41.74;101438.25;5056984;28;45585;-57
2022/05/10 03:21:27;;;;;;;;;18.75;17.75;;;;;21.92;41.64;101447.88;5056546;28;47049;-57
2022/05/10 03:23:53;;;;;;;;;16.50;16.25;;;;;21.91;42.01;101443.50;5072301;28;45392;-57
2022/05/10 03:26:23;;;;;;;;;20.50;19.50;;;;;21.89;42.02;101429.53;5056764;28;45341;-57
2022/05/10 03:28:48;;;;;;;;;19.25;18.25;;;;;21.89;42.12;101431.34;5057114;28;45455;-57
2022/05/10 03:31:16;;;;;;;;;15.75;15.50;;;;;21.89;41.95;101429.53;5056737;28;45308;-56
2022/05/10 03:33:41;;;;;;;;;17.75;16.50;;;;;21.90;41.99;101430.41;5056874;28;45845;-57
2022/05/10 03:36:07;;;;;;;;;18.25;18.25;;;;;21.88;41.86;101427.84;5072178;28;45492;-57
2022/05/10 03:38:33;;;;;;;;;16.00;16.00;;;;;21.90;41.95;101430.41;5056836;28;45446;-57
2022/05/10 03:40:58;;;;;;;;;18.75;17.75;;;;;21.90;42.02;101431.25;5056282;28;46315;-57
2022/05/10 03:43:25;;;;;;;;;17.50;15.50;;;;;21.89;42.36;101428.69;5056460;28;45368;-57
2022/05/10 03:45:50;;;;;;;;;12.25;12.25;;;;;21.87;41.97;101430.56;5056465;28;45402;-57
2022/05/10 03:48:16;;;;;;;;;21.33;18.67;;;;;21.87;42.10;101425.28;5056589;28;45540;-57
2022/05/10 03:50:41;;;;;;;;;19.25;18.25;;;;;21.86;41.91;101421.81;5056434;28;46470;-57
2022/05/10 03:53:07;;;;;;;;;18.75;18.75;;;;;21.86;42.05;101419.16;5055211;28;45312;-57
2022/05/10 03:55:32;;;;;;;;;20.00;15.75;;;;;21.86;41.90;101419.16;5038373;28;45313;-57
2022/05/10 03:57:57;;;;;;;;;18.50;17.50;;;;;21.85;41.91;101417.47;5056503;28;45491;-57
2022/05/10 04:00:26;;;;;;;;;18.00;17.25;;;;;21.85;42.14;101414.81;5056147;28;46939;-57
2022/05/10 04:02:53;;;;;;;;;20.50;19.25;;;;;21.80;42.21;101403.63;5071790;28;46050;-57
2022/05/10 04:05:19;;;;;;;;;19.25;17.50;;;;;21.86;41.99;101419.16;5056249;28;45299;-57
2022/05/10 04:07:44;;;;;;;;;19.25;18.75;;;;;21.86;41.81;101413.88;5056813;28;45581;-57
2022/05/10 04:10:13;;;;;;;;;18.75;18.75;;;;;21.87;42.17;101414.72;5055841;28;46087;-57
2022/05/10 04:12:39;;;;;;;;;18.50;17.00;;;;;21.87;42.18;101412.09;5056170;28;45785;-57
2022/05/10 04:15:07;;;;;;;;;19.25;17.00;;;;;21.87;41.99;101410.31;5056034;28;45316;-57
2022/05/10 04:17:33;;;;;;;;;16.00;15.00;;;;;21.87;42.16;101412.97;5072047;28;45551;-57
2022/05/10 04:19:58;;;;;;;;;18.25;17.50;;;;;21.90;41.97;101415.41;5056088;28;45330;-57
2022/05/10 04:22:24;;;;;;;;;19.00;17.25;;;;;21.94;42.00;101413.47;5056337;28;45393;-57
2022/05/10 04:24:49;;;;;;;;;17.25;17.25;;;;;21.93;42.17;101410.00;5056239;28;45331;-57
2022/05/10 04:27:14;;;;;;;;;18.25;18.00;;;;;21.96;41.79;101418.69;5056557;28;45598;-57
2022/05/10 04:29:40;;;;;;;;;16.75;16.75;;;;;21.96;42.01;101408.13;5055764;28;45447;-57
2022/05/10 04:32:06;;;;;;;;;18.25;17.00;;;;;21.97;41.82;101409.84;5055856;28;45413;-57
2022/05/10 04:34:31;;;;;;;;;17.00;17.00;;;;;21.98;41.62;101416.81;5055909;28;45383;-57
2022/05/10 04:36:57;;;;;;;;;23.25;18.50;;;;;21.99;41.78;101413.25;5056025;28;45543;-57
2022/05/10 04:39:22;;;;;;;;;17.00;16.50;;;;;21.98;41.94;101411.53;5055678;28;46241;-57
2022/05/10 04:41:52;;;;;;;;;21.25;18.25;;;;;21.98;41.51;101416.81;5056245;28;45872;-57
2022/05/10 04:44:17;;;;;;;;;15.50;15.50;;;;;21.90;41.79;101407.50;5056211;28;45335;-57
2022/05/10 04:46:42;;;;;;;;;16.50;15.25;;;;;21.96;41.89;101418.69;5055995;28;45256;-57
2022/05/10 04:49:11;;;;;;;;;19.50;17.50;;;;;21.96;41.77;101418.69;5055563;28;46035;-56
2022/05/10 04:51:37;;;;;;;;;19.00;16.25;;;;;21.95;41.64;101417.81;5055668;28;45925;-57
2022/05/10 04:54:04;;;;;;;;;18.25;16.50;;;;;21.96;41.63;101418.69;5055722;28;45317;-57
2022/05/10 04:56:29;;;;;;;;;17.25;17.25;;;;;21.95;41.59;101417.81;5054684;28;45223;-57
2022/05/10 04:58:55;;;;;;;;;19.25;18.00;;;;;21.96;41.82;101413.41;5054131;28;48200;-56
2022/05/10 05:01:29;;;;;;;;;21.00;19.25;;;;;21.98;41.66;101422.09;5055480;28;45260;-57
2022/05/10 05:03:56;;;;;;;;;21.00;19.50;;;;;21.97;41.50;101425.66;5056355;28;45379;-56
2022/05/10 05:06:22;;;;;;;;;20.00;20.00;;;;;21.97;41.43;101421.22;5059155;28;45429;-57
2022/05/10 05:08:47;;;;;;;;;20.00;19.25;;;;;21.98;41.46;101422.09;5059065;28;46388;-56
2022/05/10 05:11:13;;;;;;;;;20.75;20.00;;;;;21.98;41.81;101416.81;5058715;28;45350;-56
2022/05/10 05:13:38;;;;;;;;;19.50;19.50;;;;;21.98;41.53;101420.31;5058738;28;45453;-57
2022/05/10 05:16:04;;;;;;;;;22.25;20.00;;;;;21.98;41.72;101422.09;5059003;28;45419;-56
2022/05/10 05:18:29;;;;;;;;;17.50;17.50;;;;;21.97;41.48;101425.66;5058633;28;46405;-57
2022/05/10 05:20:55;;;;;;;;;17.50;17.50;;;;;21.97;41.54;101430.94;5058782;28;45369;-57
2022/05/10 05:23:22;;;;;;;;;20.25;18.25;;;;;21.93;41.49;101417.91;5058835;28;45366;-56
2022/05/10 05:25:48;;;;;;;;;18.75;17.75;;;;;21.96;41.87;101432.72;5059343;28;45299;-57
2022/05/10 05:28:15;;;;;;;;;19.00;19.00;;;;;21.98;41.89;101427.38;5058575;28;46265;-57
2022/05/10 05:30:42;;;;;;;;;19.75;19.00;;;;;21.98;41.63;101427.38;5058445;28;45266;-57
2022/05/10 05:33:07;;;;;;;;;23.50;19.75;;;;;21.96;41.70;101427.44;5058594;28;45356;-57
2022/05/10 05:35:33;;;;;;;;;18.25;17.50;;;;;22.00;41.63;101436.03;5058739;28;45340;-56
2022/05/10 05:37:59;;;;;;;;;19.75;19.50;;;;;21.98;41.54;101424.75;5058468;28;46403;-57
2022/05/10 05:40:25;;;;;;;;;17.75;17.00;;;;;21.98;41.45;101430.03;5058403;28;45378;-56
2022/05/10 05:42:51;;;;;;;;;17.50;16.75;;;;;21.99;41.54;101426.44;5058867;28;45314;-57
2022/05/10 05:45:19;;;;;;;;;18.50;17.50;;;;;21.99;41.38;101431.72;5058858;28;45397;-56
2022/05/10 05:47:45;;;;;;;;;19.00;16.25;;;;;21.99;41.40;101429.09;5058200;28;45244;-56
2022/05/10 05:50:14;;;;;;;;;17.00;17.00;;;;;21.99;41.49;101429.09;5058083;28;45279;-57
2022/05/10 05:52:40;;;;;;;;;18.50;18.00;;;;;22.00;41.71;101434.28;5058298;28;45426;-57
2022/05/10 05:55:07;;;;;;;;;18.75;16.25;;;;;22.01;41.51;101429.84;5058422;28;45348;-57
2022/05/10 05:57:34;;;;;;;;;20.25;20.25;;;;;22.01;41.78;101432.47;5058112;28;46592;-57
2022/05/10 05:59:59;;;;;;;;;18.25;18.00;;;;;21.99;41.63;101429.09;5058239;28;45315;-57
2022/05/10 06:02:26;;;;;;;;;19.50;19.50;;;;;22.00;41.80;101431.63;5058155;28;45394;-56
2022/05/10 06:04:52;;;;;;;;;19.50;19.50;;;;;22.00;41.32;101433.41;5058706;28;45216;-57
2022/05/10 06:07:19;;;;;;;;;19.25;18.00;;;;;22.00;41.46;101428.13;5058240;28;46500;-57
2022/05/10 06:09:46;;;;;;;;;20.50;18.50;;;;;21.95;41.59;101423.09;5057736;28;45957;-56
2022/05/10 06:12:16;;;;;;;;;21.25;21.25;;;;;22.00;41.85;101436.03;5058066;28;45457;-56
2022/05/10 06:14:42;;;;;;;;;21.75;20.00;;;;;22.01;41.71;101429.84;5058094;28;45509;-57
2022/05/10 06:17:09;;;;;;;;;19.25;18.25;;;;;22.02;41.54;101431.53;5056916;28;46306;-56
2022/05/10 06:19:39;;;;;;;;;17.75;15.75;;;;;22.02;41.54;101435.06;5057829;28;45967;-57
2022/05/10 06:22:06;;;;;;;;;18.50;15.50;;;;;22.04;41.50;101434.97;5057896;28;45227;-56
2022/05/10 06:24:32;;;;;;;;;19.75;17.00;;;;;22.02;41.54;101432.41;5058230;28;45446;-57
2022/05/10 06:26:57;;;;;;;;;20.75;18.00;;;;;22.04;41.55;101432.31;5057652;28;46291;-57
2022/05/10 06:29:23;;;;;;;;;17.25;17.25;;;;;22.05;41.49;101431.41;5058150;28;45196;-57
2022/05/10 06:31:48;;;;;;;;;17.25;17.25;;;;;22.06;41.44;101430.47;5057801;28;45810;-57
2022/05/10 06:34:15;;;;;;;;;18.50;18.50;;;;;22.07;41.46;101432.16;5057900;28;46034;-57
2022/05/10 06:36:41;;;;;;;;;20.25;20.25;;;;;22.09;41.54;101430.31;5057582;28;45393;-57
2022/05/10 06:39:08;;;;;;;;;17.25;17.25;;;;;22.09;41.34;101425.88;5057160;28;45346;-56
2022/05/10 06:41:34;;;;;;;;;18.50;17.50;;;;;22.11;41.47;101433.69;5057554;28;45406;-57
2022/05/10 06:44:00;;;;;;;;;19.00;19.00;;;;;22.09;41.60;101423.22;5057872;28;45506;-57
2022/05/10 06:46:27;;;;;;;;;21.75;18.75;;;;;22.12;41.47;101427.50;5057277;28;46601;-56
2022/05/10 06:48:53;;;;;;;;;18.50;18.50;;;;;22.13;41.45;101421.28;5057844;28;46135;-57
2022/05/10 06:51:21;;;;;;;;;21.75;19.75;;;;;22.15;41.49;101423.84;5057365;28;45511;-57
2022/05/10 06:53:47;;;;;;;;;23.50;18.50;;;;;22.16;41.25;101425.56;5057639;28;45544;-58
2022/05/10 06:56:13;;;;;;;;;21.50;19.75;;;;;22.15;41.77;101423.84;5057113;28;46094;-57
2022/05/10 06:58:38;;;;;;;;;18.25;18.25;;;;;22.14;41.41;101425.63;5057230;28;45387;-57
2022/05/10 07:01:11;;;;;;;;;21.00;20.00;;;;;22.12;41.73;101418.72;5057414;28;45291;-57
2022/05/10 07:03:38;;;;;;;;;21.50;20.00;;;;;22.18;41.59;101429.81;5057286;28;45383;-57
2022/05/10 07:06:06;;;;;;;;;21.75;21.75;;;;;22.20;41.64;101429.72;5057055;28;46421;-56
2022/05/10 07:08:32;;;;;;;;;23.25;21.75;;;;;22.23;41.80;101427.78;5057003;28;45230;-55
2022/05/10 07:10:58;;;;;;;;;19.25;19.25;;;;;22.24;41.48;101424.19;5057053;28;45302;-55
2022/05/10 07:13:26;;;;;;;;;20.50;18.50;;;;;22.28;41.63;101421.41;5057408;28;45523;-55
2022/05/10 07:15:52;;;;;;;;;21.25;20.50;;;;;22.31;41.51;101421.25;5057217;28;45350;-57
2022/05/10 07:18:18;;;;;;;;;21.00;19.50;;;;;22.31;41.54;101422.09;5056950;28;45872;-59
2022/05/10 07:20:45;;;;;;;;;17.25;15.75;;;;;22.34;41.21;101419.28;5057234;28;45312;-56
2022/05/10 07:23:12;;;;;;;;;20.50;19.50;;;;;22.36;41.93;101413.91;5057017;28;45470;-56
2022/05/10 07:25:38;;;;;;;;;22.50;20.00;;;;;22.37;41.27;101418.25;5056644;28;45208;-58
2022/05/10 07:28:06;;;;;;;;;19.75;19.50;;;;;22.38;40.87;101419.97;5056526;28;45952;-59
2022/05/10 07:30:34;;;;;;;;;20.75;18.25;;;;;22.39;41.47;101417.22;5056905;28;45326;-57
2022/05/10 07:32:59;;;;;;;;;22.50;21.25;;;;;22.40;41.56;101412.81;5057112;28;45476;-59
2022/05/10 07:38:13;;;;;;;;;19.50;19.50;;;;;22.44;41.35;101419.66;5056549;28;46024;-52
2022/05/10 07:40:39;;;;;;;;;20.75;19.25;;;;;22.44;41.30;101413.53;5056712;28;45373;-53
2022/05/10 07:43:06;;;;;;;;;18.50;15.00;;;;;22.48;41.21;101423.84;5056857;28;45295;-53
2022/05/10 07:45:32;;;;;;;;;15.25;15.25;;;;;22.49;41.20;101422.06;5056487;28;47409;-53
2022/05/10 07:47:57;;;;;;;;;20.25;19.00;;;;;22.49;41.42;101416.78;5056444;28;45466;-53
2022/05/10 07:50:22;;;;;;;;;17.00;16.75;;;;;22.50;41.23;101415.81;5056935;28;45379;-55
2022/05/10 07:52:48;;;;;;;;;20.00;20.00;;;;;22.49;41.30;101409.72;5056568;28;45311;-56
2022/05/10 07:55:13;;;;;;;;;23.00;18.75;;;;;22.46;41.50;101401.94;5056108;28;48929;-56
2022/05/10 07:57:40;;;;;;;;;17.25;17.25;;;;;22.48;41.22;101415.94;5056245;28;45489;-55
2022/05/10 08:00:08;;;;;;;;;17.25;16.00;;;;;22.49;41.19;101415.00;5056382;28;45351;-55
2022/05/10 08:02:34;;;;;;;;;18.25;15.75;;;;;22.49;41.54;101403.59;5055309;28;45608;-56
2022/05/10 08:05:00;;;;;;;;;21.25;17.75;;;;;22.51;41.27;101407.84;5055751;28;47514;-56
2022/05/10 08:07:26;;;;;;;;;19.00;18.25;;;;;22.54;41.20;101420.84;5056459;28;45463;-56
2022/05/10 08:09:52;;;;;;;;;20.25;19.50;;;;;22.55;41.13;101414.63;5056271;28;45329;-56
2022/05/10 08:12:18;;;;;;;;;18.00;17.75;;;;;22.55;40.99;101409.34;5056346;28;45413;-56
2022/05/10 08:14:43;;;;;;;;;19.00;15.00;;;;;22.55;41.38;101414.63;5056118;28;45822;-57
2022/05/10 08:17:08;;;;;;;;;18.00;18.00;;;;;22.58;41.11;101420.69;5056032;28;45710;-57
2022/05/10 08:19:34;;;;;;;;;16.25;15.00;;;;;22.57;41.03;101419.84;5056140;28;45181;-56
2022/05/10 08:21:59;;;;;;;;;18.50;17.50;;;;;22.58;41.04;101424.22;5056413;28;45332;-56
2022/05/10 08:24:24;;;;;;;;;15.25;15.25;;;;;22.60;40.98;101418.84;5037392;28;45938;-55
2022/05/10 08:26:50;;;;;;;;;20.00;17.75;;;;;22.60;41.08;101419.66;5036007;28;45345;-56
2022/05/10 08:29:15;;;;;;;;;17.50;15.00;;;;;22.63;41.07;101427.44;5035972;28;45351;-56
2022/05/10 08:31:41;;;;;;;;;15.00;14.75;;;;;22.64;41.07;101423.03;5036065;28;45342;-55
2022/05/10 08:34:06;;;;;;;;;16.00;15.00;;;;;22.66;41.08;101426.41;5035764;28;45391;-56
2022/05/10 08:36:32;;;;;;;;;16.50;16.00;;;;;22.67;40.72;101421.06;5035761;28;45279;-57
2022/05/10 08:38:58;;;;;;;;;18.75;16.75;;;;;22.69;41.00;101428.88;5036804;28;45338;-58
2022/05/10 08:41:29;;;;;;;;;16.50;15.00;;;;;22.72;40.88;101427.84;5038319;28;45446;-59
2022/05/10 08:44:10;;;;;;;;;20.00;19.00;;;;;22.73;40.89;101424.28;5039425;28;45363;-59
2022/05/10 08:46:41;;;;;;;;;18.00;16.50;;;;;22.73;40.85;101414.56;5039186;28;45465;-56
2022/05/10 08:49:18;;;;;;;;;17.50;16.25;;;;;22.75;40.90;101412.72;5039127;28;45383;-59
2022/05/10 08:51:43;;;;;;;;;17.00;15.25;;;;;22.76;40.81;101413.53;5039585;28;45469;-59
2022/05/10 08:54:09;;;;;;;;;18.25;17.25;;;;;22.78;40.79;101411.69;5037614;28;46004;-56
2022/05/10 08:56:43;;;;;;;;;18.00;16.50;;;;;22.80;40.77;101402.72;5038979;28;45332;-56
2022/05/10 08:59:24;;;;;;;;;16.00;15.25;;;;;22.81;40.68;101407.06;5039075;28;45517;-56
2022/05/10 09:02:15;;;;;;;;;14.50;14.50;;;;;22.84;40.66;101406.03;5039093;28;45173;-58
2022/05/10 09:04:48;;;;;;;;;15.75;14.00;;;;;22.84;40.53;101409.53;5038349;28;45486;-58
2022/05/10 09:07:35;;;;;;;;;15.50;15.25;;;;;22.89;40.64;101411.06;5039028;28;45833;-55
2022/05/10 09:10:16;;;;;;;;;14.75;14.75;;;;;22.92;40.20;101413.53;5039294;28;45447;-59
2022/05/10 09:12:58;;;;;;;;;18.25;18.25;;;;;22.93;40.57;101404.66;5039077;28;45177;-59
2022/05/10 09:15:26;;;;;;;;;12.50;12.50;;;;;22.96;40.31;101405.34;5038776;28;47046;-58
2022/05/10 09:17:52;;;;;;;;;14.75;13.75;;;;;22.97;40.14;101401.75;5038679;28;45390;-56
2022/05/10 09:20:17;;;;;;;;;14.00;14.00;;;;;23.01;39.88;101394.50;5038839;28;45367;-58
2022/05/10 09:23:01;;;;;;;;;18.50;16.00;;;;;23.04;39.83;101402.28;5038806;28;45241;-59
2022/05/10 09:25:34;;;;;;;;;14.50;14.50;;;;;23.06;39.92;101397.75;5038629;28;45486;-56
2022/05/10 09:28:13;;;;;;;;;15.25;14.00;;;;;23.09;39.67;101394.94;5038934;28;45271;-59
2022/05/10 09:30:38;;;;;;;;;16.25;14.75;;;;;23.11;39.41;101390.38;5038513;28;45523;-56
2022/05/10 09:36:10;;;;;;;;;14.00;14.00;;;;;23.15;39.46;101389.28;5037474;28;45683;-59
2022/05/10 09:38:44;;;;;;;;;15.00;15.00;;;;;23.18;39.38;101393.53;5038327;28;45858;-56
2022/05/10 09:41:25;;;;;;;;;15.50;14.75;;;;;23.17;38.97;101376.84;5038555;28;45398;-58
2022/05/10 09:43:52;;;;;;;;;13.75;13.75;;;;;23.22;39.09;101392.47;5038726;28;45316;-58
2022/05/10 09:46:19;;;;;;;;;19.00;17.00;;;;;23.24;39.03;101392.34;5038190;28;46387;-58
2022/05/10 09:48:46;;;;;;;;;14.50;14.50;;;;;23.23;39.17;101385.38;5038282;28;45891;-59
2022/05/10 09:51:24;;;;;;;;;17.75;16.75;;;;;23.26;39.38;101379.91;5036847;28;45383;-59
2022/05/10 09:53:51;;;;;;;;;15.00;15.00;;;;;23.27;39.26;101376.31;5038570;28;45399;-56
2022/05/10 09:56:23;;;;;;;;;11.25;10.50;;;;;23.28;39.39;101378.88;5036696;28;47323;-57
2022/05/10 09:59:01;;;;;;;;;16.00;16.00;;;;;23.29;39.17;101380.56;5038179;28;45800;-56
2022/05/10 10:01:56;;;;;;;;;15.75;15.25;;;;;23.31;39.33;101377.84;5038071;28;45296;-58
2022/05/10 10:04:26;;;;;;;;;17.25;16.00;;;;;23.31;39.09;101373.41;5038091;28;45407;-56
2022/05/10 10:07:17;;;;;;;;;18.25;15.75;;;;;23.34;39.37;101377.66;5037794;28;46357;-59
2022/05/10 10:09:55;;;;;;;;;16.75;15.00;;;;;23.36;39.21;101380.22;5038016;28;45774;-57
2022/05/10 10:12:41;;;;;;;;;16.50;14.00;;;;;23.39;39.21;101374.72;5037781;28;45414;-57
2022/05/10 10:15:29;;;;;;;;;12.25;12.25;;;;;23.40;38.90;101361.44;5037962;28;45433;-56
2022/05/10 10:17:58;;;;;;;;;13.75;13.75;;;;;23.42;38.91;101362.22;5032083;28;47140;-57
2022/05/10 10:20:36;;;;;;;;;12.25;12.25;;;;;23.42;38.62;101363.97;5037683;28;45960;-57
2022/05/10 10:23:08;;;;;;;;;15.75;15.25;;;;;23.40;38.79;101371.16;5036944;28;45384;-57
2022/05/10 10:25:44;;;;;;;;;15.00;15.00;;;;;23.38;38.78;101368.59;5038123;28;45455;-56
2022/05/10 10:28:24;;;;;;;;;14.75;14.50;;;;;23.36;38.96;101359.91;5037752;28;46356;-56
2022/05/10 10:30:58;;;;;;;;;15.25;13.00;;;;;23.33;38.90;101364.53;5037481;28;45192;-57
2022/05/10 10:33:39;;;;;;;;;15.75;15.00;;;;;23.31;39.30;101364.63;5037799;28;45296;-57
2022/05/10 10:36:21;;;;;;;;;15.25;14.25;;;;;23.28;39.39;101370.94;5037987;28;45475;-57
2022/05/10 10:39:13;;;;;;;;;13.00;12.25;;;;;23.29;38.93;101370.00;5037459;28;45338;-57
2022/05/10 10:42:07;;;;;;;;;15.75;15.75;;;;;23.29;39.06;101366.50;5037266;28;45327;-56
2022/05/10 10:44:37;;;;;;;;;13.75;13.25;;;;;23.28;39.15;101367.44;5019164;28;45379;-57
2022/05/10 10:47:15;;;;;;;;;14.25;13.50;;;;;23.27;38.90;101366.56;5038002;28;45391;-57
2022/05/10 10:49:49;;;;;;;;;12.25;12.25;;;;;23.26;38.81;101358.75;5037354;28;46286;-56
2022/05/10 10:52:17;;;;;;;;;15.00;14.00;;;;;23.24;38.98;101365.91;5037213;28;45754;-56
2022/05/10 10:54:43;;;;;;;;;15.75;12.50;;;;;23.25;38.59;101362.34;5037451;28;45402;-55
2022/05/10 10:57:20;;;;;;;;;14.75;14.25;;;;;23.23;39.20;101361.56;5037349;28;45348;-56
2022/05/10 11:00:07;;;;;;;;;18.00;18.00;;;;;23.22;38.76;101358.09;5037344;28;45454;-55
2022/05/10 11:02:54;;;;;;;;;14.50;13.50;;;;;23.23;38.88;101359.78;5036807;28;45426;-55
2022/05/10 11:05:37;;;;;;;;;16.00;15.00;;;;;23.23;38.87;101359.78;5037171;28;45444;-56
2022/05/10 11:08:21;;;;;;;;;14.50;13.75;;;;;23.23;38.79;101354.50;5036476;28;45412;-56
2022/05/10 11:10:54;;;;;;;;;5.00;5.00;;;;;23.23;38.91;101351.84;5036672;28;45454;-56
2022/05/10 11:13:22;;;;;;;;;17.00;14.50;;;;;23.23;39.01;101353.63;5036671;28;45948;-56
2022/05/10 11:15:56;;;;;;;;;13.25;13.25;;;;;23.23;38.63;101343.06;5036999;28;45236;-56
2022/05/10 11:19:16;;;;;;;;;14.75;13.25;;;;;23.24;38.74;101339.47;5037149;28;45433;-56
2022/05/10 11:22:06;;;;;;;;;15.50;14.50;;;;;23.23;38.76;101324.53;4994848;28;45405;-56
2022/05/10 11:24:59;;;;;;;;;12.75;12.75;;;;;23.25;38.37;101331.47;5036613;28;45820;-56
2022/05/10 11:27:27;;;;;;;;;15.00;14.00;;;;;23.25;38.49;101318.25;5036818;28;45349;-57
2022/05/10 11:30:11;;;;;;;;;16.25;14.50;;;;;23.26;38.38;101325.19;5036970;28;45273;-56
2022/05/10 11:32:57;;;;;;;;;14.75;14.75;;;;;23.26;38.49;101316.44;5036820;28;45686;-55
2022/05/10 11:35:50;;;;;;;;;14.25;12.75;;;;;23.26;38.42;101317.28;5036500;28;45435;-56